createdAt,value
2022-08-17T00:00:43.678Z,23.76
2022-08-17T00:03:17.693Z,23.79
2022-08-17T00:05:52.562Z,23.74
2022-08-17T00:08:24.227Z,23.73
2022-08-17T00:10:54.157Z,23.71
2022-08-17T00:13:38.930Z,23.68
2022-08-17T00:16:12.163Z,23.64
2022-08-17T00:19:01.268Z,23.59
2022-08-17T00:21:56.429Z,23.60
2022-08-17T00:24:18.364Z,23.64
2022-08-17T00:26:47.276Z,23.63
2022-08-17T00:29:19.570Z,23.64
2022-08-17T00:31:49.306Z,23.58
2022-08-17T00:34:17.664Z,23.52
2022-08-17T00:36:45.548Z,23.53
2022-08-17T00:39:13.433Z,23.54
2022-08-17T00:41:42.456Z,23.56
2022-08-17T00:44:12.372Z,23.55
2022-08-17T00:46:43.700Z,23.57
2022-08-17T00:49:13.439Z,23.58
2022-08-17T00:51:47.857Z,23.57
2022-08-17T00:54:30.265Z,23.58
2022-08-17T00:57:15.525Z,23.57
2022-08-17T01:00:01.875Z,23.53
2022-08-17T01:02:42.633Z,23.47
2022-08-17T01:05:18.564Z,23.38
2022-08-17T01:07:50.106Z,23.36
2022-08-17T01:11:00.004Z,23.41
2022-08-17T01:13:12.238Z,23.41
2022-08-17T01:15:46.580Z,23.39
2022-08-17T01:18:16.900Z,23.32
2022-08-17T01:20:49.082Z,23.23
2022-08-17T01:23:20.762Z,23.16
2022-08-17T01:25:54.557Z,23.14
2022-08-17T01:28:52.785Z,23.15
2022-08-17T01:31:14.650Z,23.12
2022-08-17T01:33:42.647Z,23.14
2022-08-17T01:36:10.912Z,23.16
2022-08-17T01:38:39.495Z,23.13
2022-08-17T01:41:12.638Z,23.10
2022-08-17T01:43:52.241Z,23.08
2022-08-17T01:46:27.888Z,23.11
2022-08-17T01:48:57.639Z,23.12
2022-08-17T01:51:30.843Z,23.10
2022-08-17T01:54:02.692Z,23.05
2022-08-17T01:56:32.798Z,22.97
2022-08-17T01:59:00.890Z,22.92
2022-08-17T02:01:32.446Z,22.92
2022-08-17T02:04:01.860Z,22.96
2022-08-17T02:06:47.125Z,23.01
2022-08-17T02:09:23.990Z,23.04
2022-08-17T02:11:58.450Z,23.05
2022-08-17T02:14:27.328Z,23.01
2022-08-17T02:16:56.190Z,23.02
2022-08-17T02:19:24.007Z,22.98
2022-08-17T02:21:55.553Z,22.96
2022-08-17T02:25:01.293Z,22.87
2022-08-17T02:27:15.545Z,22.88
2022-08-17T02:29:44.338Z,22.90
2022-08-17T02:32:30.512Z,22.83
2022-08-17T02:34:59.171Z,22.68
2022-08-17T02:37:29.011Z,22.66
2022-08-17T02:39:58.533Z,22.74
2022-08-17T02:42:34.059Z,22.78
2022-08-17T02:45:05.297Z,22.79
2022-08-17T02:47:33.981Z,22.77
2022-08-17T02:50:01.824Z,22.80
2022-08-17T02:52:41.962Z,22.81
2022-08-17T02:55:20.694Z,22.82
2022-08-17T02:57:49.559Z,22.85
2022-08-17T03:00:25.339Z,22.86
2022-08-17T03:02:53.460Z,22.91
2022-08-17T03:05:23.252Z,22.94
2022-08-17T03:07:52.292Z,22.94
2022-08-17T03:10:21.731Z,22.92
2022-08-17T03:12:50.751Z,22.91
2022-08-17T03:15:28.804Z,22.93
2022-08-17T03:17:57.730Z,22.91
2022-08-17T03:20:28.186Z,22.85
2022-08-17T03:23:03.041Z,22.77
2022-08-17T03:25:35.942Z,22.69
2022-08-17T03:28:06.078Z,22.67
2022-08-17T03:30:35.394Z,22.66
2022-08-17T03:33:05.511Z,22.60
2022-08-17T03:35:36.545Z,22.58
2022-08-17T03:38:05.263Z,22.56
2022-08-17T03:40:55.129Z,22.57
2022-08-17T03:43:22.656Z,22.63
2022-08-17T03:46:10.898Z,22.72
2022-08-17T03:49:15.680Z,22.72
2022-08-17T03:52:02.913Z,22.71
2022-08-17T03:54:51.320Z,22.75
2022-08-17T03:57:19.347Z,22.65
2022-08-17T03:59:47.963Z,22.51
2022-08-17T04:02:25.716Z,22.43
2022-08-17T04:04:54.324Z,22.41
2022-08-17T04:07:24.992Z,22.43
2022-08-17T04:09:52.956Z,22.53
2022-08-17T04:12:23.566Z,22.58
2022-08-17T04:14:54.359Z,22.53
2022-08-17T04:17:28.110Z,22.61
2022-08-17T04:19:56.212Z,22.61
2022-08-17T04:22:30.774Z,22.53
2022-08-17T04:25:27.574Z,22.50
2022-08-17T04:27:56.232Z,22.59
2022-08-17T04:30:25.265Z,22.66
2022-08-17T04:33:05.807Z,22.73
2022-08-17T04:35:47.140Z,22.74
2022-08-17T04:38:22.312Z,22.79
2022-08-17T04:41:12.983Z,22.84
2022-08-17T04:43:43.214Z,22.89
2022-08-17T04:46:14.702Z,22.88
2022-08-17T04:48:46.121Z,22.84
2022-08-17T04:51:18.595Z,22.84
2022-08-17T04:53:53.954Z,22.94
2022-08-17T04:56:26.129Z,23.03
2022-08-17T04:59:06.139Z,23.10
2022-08-17T05:01:36.559Z,23.21
2022-08-17T05:04:33.177Z,23.32
2022-08-17T05:06:55.757Z,23.40
2022-08-17T05:09:23.679Z,23.47
2022-08-17T05:11:52.360Z,23.52
2022-08-17T05:14:32.422Z,23.46
2022-08-17T05:17:07.234Z,23.34
2022-08-17T05:19:39.131Z,23.21
2022-08-17T05:22:07.173Z,23.19
2022-08-17T05:24:40.795Z,23.30
2022-08-17T05:27:14.361Z,23.40
2022-08-17T05:29:47.174Z,23.36
2022-08-17T05:32:38.550Z,23.27
2022-08-17T05:35:03.523Z,23.20
2022-08-17T05:37:31.375Z,23.24
2022-08-17T05:39:59.569Z,23.26
2022-08-17T05:42:27.572Z,23.34
2022-08-17T05:44:58.089Z,23.43
2022-08-17T05:47:27.294Z,23.52
2022-08-17T05:49:56.003Z,23.60
2022-08-17T05:52:42.946Z,23.68
2022-08-17T05:55:18.195Z,23.74
2022-08-17T05:57:56.146Z,23.65
2022-08-17T06:00:37.281Z,23.60
2022-08-17T06:03:41.660Z,23.61
2022-08-17T06:06:38.258Z,23.69
2022-08-17T06:09:27.728Z,23.76
2022-08-17T06:12:19.765Z,23.80
2022-08-17T06:15:08.361Z,23.88
2022-08-17T06:17:37.754Z,23.94
2022-08-17T06:20:11.391Z,24.01
2022-08-17T06:22:52.100Z,24.01
2022-08-17T06:25:34.968Z,24.00
2022-08-17T06:28:13.874Z,24.08
2022-08-17T06:31:01.053Z,24.16
2022-08-17T06:33:34.462Z,24.33
2022-08-17T06:36:25.364Z,24.45
2022-08-17T06:38:53.651Z,24.51
2022-08-17T06:41:38.120Z,24.53
2022-08-17T06:44:49.819Z,24.61
2022-08-17T06:47:28.872Z,24.74
2022-08-17T06:50:30.990Z,24.83
2022-08-17T06:53:04.691Z,24.96
2022-08-17T06:55:54.683Z,25.06
2022-08-17T06:58:29.708Z,25.07
2022-08-17T07:01:03.899Z,25.14
2022-08-17T07:03:41.205Z,25.15
2022-08-17T07:06:15.196Z,25.15
2022-08-17T07:08:49.918Z,25.26
2022-08-17T07:11:35.118Z,25.32
2022-08-17T07:14:39.943Z,25.45
2022-08-17T07:17:14.067Z,25.46
2022-08-17T07:19:45.655Z,25.45
2022-08-17T07:22:57.356Z,25.51
2022-08-17T07:25:29.021Z,25.47
2022-08-17T07:28:06.100Z,25.54
2022-08-17T07:30:47.104Z,25.61
2022-08-17T07:33:20.487Z,25.70
2022-08-17T07:35:50.072Z,25.83
2022-08-17T07:38:26.737Z,25.91
2022-08-17T07:40:59.988Z,26.08
2022-08-17T07:43:35.697Z,26.12
2022-08-17T07:46:30.352Z,26.08
2022-08-17T07:49:04.265Z,26.16
2022-08-17T07:51:36.727Z,26.06
2022-08-17T07:54:18.804Z,25.93
2022-08-17T07:57:04.855Z,26.06
2022-08-17T07:59:38.415Z,26.24
2022-08-17T08:02:31.096Z,26.38
2022-08-17T08:05:13.189Z,26.42
2022-08-17T08:07:55.078Z,26.49
2022-08-17T08:10:42.760Z,26.48
2022-08-17T08:13:24.553Z,26.56
2022-08-17T08:15:55.313Z,26.67
2022-08-17T08:18:55.270Z,26.64
2022-08-17T08:21:51.412Z,26.67
2022-08-17T08:24:37.288Z,26.85
2022-08-17T08:27:36.150Z,26.89
2022-08-17T08:30:18.348Z,27.14
2022-08-17T08:33:14.876Z,27.37
2022-08-17T08:35:48.641Z,27.52
2022-08-17T08:38:48.884Z,27.67
2022-08-17T08:41:30.136Z,27.92
2022-08-17T08:44:17.212Z,28.03
2022-08-17T08:47:00.549Z,27.94
2022-08-17T08:50:05.379Z,27.99
2022-08-17T08:53:09.255Z,28.14
2022-08-17T08:55:37.347Z,28.37
2022-08-17T08:58:40.454Z,28.37
2022-08-17T09:01:17.005Z,28.23
2022-08-17T09:04:21.531Z,28.24
2022-08-17T09:06:59.842Z,28.38
2022-08-17T09:09:43.902Z,28.51
2022-08-17T09:12:25.590Z,28.62
2022-08-17T09:15:32.240Z,28.70
2022-08-17T09:19:00.389Z,28.79
2022-08-17T09:21:38.188Z,28.92
2022-08-17T09:24:29.961Z,29.07
2022-08-17T09:27:01.496Z,29.40
2022-08-17T09:29:36.728Z,29.98
2022-08-17T09:32:24.432Z,31.03
2022-08-17T09:35:01.596Z,32.18
2022-08-17T09:37:53.416Z,31.82
2022-08-17T09:40:25.914Z,31.38
2022-08-17T09:43:01.341Z,31.40
2022-08-17T09:45:51.612Z,32.56
2022-08-17T09:48:50.873Z,34.10
2022-08-17T09:51:30.490Z,34.17
2022-08-17T09:54:21.016Z,34.16
2022-08-17T09:57:28.589Z,35.20
2022-08-17T10:00:17.404Z,36.50
2022-08-17T10:02:57.474Z,36.86
2022-08-17T10:05:28.272Z,35.65
2022-08-17T10:08:30.241Z,34.86
2022-08-17T10:11:12.174Z,34.04
2022-08-17T10:14:01.210Z,33.42
2022-08-17T10:16:43.408Z,33.79
2022-08-17T10:19:37.899Z,35.18
2022-08-17T10:22:54.933Z,36.46
2022-08-17T10:25:54.771Z,38.06
2022-08-17T10:28:30.336Z,38.83
2022-08-17T10:31:33.062Z,37.96
2022-08-17T10:33:59.704Z,36.16
2022-08-17T10:36:43.313Z,36.02
2022-08-17T10:39:19.914Z,37.61
2022-08-17T10:41:52.772Z,38.79
2022-08-17T10:44:44.759Z,38.50
2022-08-17T10:47:15.975Z,37.73
2022-08-17T10:49:54.051Z,37.34
2022-08-17T10:52:28.127Z,36.98
2022-08-17T10:54:59.026Z,37.34
2022-08-17T10:57:26.830Z,37.85
2022-08-17T10:59:59.595Z,37.85
2022-08-17T11:02:40.840Z,36.87
2022-08-17T11:05:17.492Z,36.49
2022-08-17T11:08:01.772Z,36.17
2022-08-17T11:10:42.320Z,35.53
2022-08-17T11:13:35.578Z,34.63
2022-08-17T11:16:22.063Z,34.12
2022-08-17T11:19:11.222Z,33.92
2022-08-17T11:22:15.629Z,33.50
2022-08-17T11:24:52.673Z,33.08
2022-08-17T11:27:31.003Z,32.40
2022-08-17T11:30:08.432Z,31.81
2022-08-17T11:32:47.834Z,31.49
2022-08-17T11:35:20.927Z,31.37
2022-08-17T11:38:28.489Z,31.11
2022-08-17T11:41:46.319Z,31.10
2022-08-17T11:44:20.794Z,30.96
2022-08-17T11:47:12.704Z,30.78
2022-08-17T11:50:27.979Z,30.53
2022-08-17T11:52:56.315Z,30.37
2022-08-17T11:55:37.482Z,30.42
2022-08-17T11:58:26.937Z,30.23
2022-08-17T12:00:56.762Z,30.11
2022-08-17T12:03:43.398Z,30.18
2022-08-17T12:06:44.995Z,30.11
2022-08-17T12:09:24.903Z,29.95
2022-08-17T12:12:12.876Z,29.90
2022-08-17T12:15:09.695Z,29.91
2022-08-17T12:17:40.717Z,29.77
2022-08-17T12:20:24.582Z,29.63
2022-08-17T12:23:05.034Z,29.54
2022-08-17T12:26:09.464Z,29.29
2022-08-17T12:28:44.345Z,29.24
2022-08-17T12:31:19.740Z,29.16
2022-08-17T12:33:50.120Z,29.18
2022-08-17T12:36:26.218Z,29.16
2022-08-17T12:39:14.387Z,29.19
2022-08-17T12:41:55.455Z,29.16
2022-08-17T12:44:28.481Z,29.18
2022-08-17T12:47:07.704Z,29.22
2022-08-17T12:49:38.006Z,29.26
2022-08-17T12:52:10.069Z,29.20
2022-08-17T12:54:37.728Z,29.24
2022-08-17T12:57:12.680Z,29.30
2022-08-17T12:59:43.772Z,29.37
2022-08-17T13:02:39.520Z,29.43
2022-08-17T13:05:17.862Z,29.50
2022-08-17T13:07:46.695Z,29.60
2022-08-17T13:10:36.317Z,29.63
2022-08-17T13:13:22.320Z,29.59
2022-08-17T13:15:53.506Z,29.71
2022-08-17T13:18:42.458Z,29.84
2022-08-17T13:21:19.261Z,29.95
2022-08-17T13:24:03.332Z,30.02
2022-08-17T13:26:38.111Z,30.11
2022-08-17T13:29:09.004Z,30.06
2022-08-17T13:31:52.796Z,29.84
2022-08-17T13:34:24.369Z,29.61
2022-08-17T13:37:20.750Z,29.56
2022-08-17T13:39:51.760Z,29.45
2022-08-17T13:42:50.332Z,29.34
2022-08-17T13:45:36.656Z,29.17
2022-08-17T13:48:23.653Z,29.12
2022-08-17T13:51:03.694Z,29.11
2022-08-17T13:53:36.393Z,29.13
2022-08-17T13:56:37.950Z,29.15
2022-08-17T13:59:05.489Z,29.12
2022-08-17T14:01:44.002Z,29.11
2022-08-17T14:04:16.310Z,29.07
2022-08-17T14:06:54.144Z,28.97
2022-08-17T14:09:26.252Z,28.85
2022-08-17T14:11:56.820Z,28.82
2022-08-17T14:14:25.605Z,28.82
2022-08-17T14:16:54.142Z,28.89
2022-08-17T14:19:22.083Z,28.96
2022-08-17T14:21:50.391Z,29.05
2022-08-17T14:24:35.187Z,29.17
2022-08-17T14:27:05.541Z,29.27
2022-08-17T14:29:34.512Z,29.33
2022-08-17T14:32:11.412Z,29.38
2022-08-17T14:34:39.156Z,29.37
2022-08-17T14:37:06.892Z,29.41
2022-08-17T14:39:34.778Z,29.37
2022-08-17T14:42:02.703Z,29.35
2022-08-17T14:44:30.513Z,29.36
2022-08-17T14:46:58.290Z,29.37
2022-08-17T14:49:26.317Z,29.25
2022-08-17T14:51:54.161Z,29.25
2022-08-17T14:54:33.272Z,29.25
2022-08-17T14:57:09.375Z,29.26
2022-08-17T14:59:55.240Z,29.24
2022-08-17T15:02:29.882Z,29.20
2022-08-17T15:05:01.872Z,29.09
2022-08-17T15:07:30.451Z,29.09
2022-08-17T15:10:02.486Z,29.10
2022-08-17T15:12:33.649Z,29.02
2022-08-17T15:15:07.108Z,28.90
2022-08-17T15:17:44.782Z,28.89
2022-08-17T15:20:21.893Z,28.83
2022-08-17T15:22:51.181Z,28.70
2022-08-17T15:25:19.440Z,28.64
2022-08-17T15:27:47.609Z,28.63
2022-08-17T15:30:15.832Z,28.62
2022-08-17T15:32:45.866Z,28.65
2022-08-17T15:35:27.498Z,28.69
2022-08-17T15:38:10.684Z,28.69
2022-08-17T15:40:45.455Z,28.66
2022-08-17T15:43:17.014Z,28.64
2022-08-17T15:45:58.742Z,28.66
2022-08-17T15:48:43.825Z,28.65
2022-08-17T15:51:20.099Z,28.62
2022-08-17T15:53:54.812Z,28.53
2022-08-17T15:56:23.128Z,28.47
2022-08-17T15:58:51.062Z,28.41
2022-08-17T16:03:01.946Z,28.33
2022-08-17T16:04:30.528Z,28.33
2022-08-17T16:07:00.243Z,28.35
2022-08-17T16:09:28.147Z,28.38
2022-08-17T16:11:56.468Z,28.36
2022-08-17T16:14:34.137Z,28.31
2022-08-17T16:17:04.788Z,28.27
2022-08-17T16:19:44.297Z,28.27
2022-08-17T16:22:13.250Z,28.25
2022-08-17T16:24:47.753Z,28.24
2022-08-17T16:27:25.541Z,28.20
2022-08-17T16:29:54.405Z,28.17
2022-08-17T16:32:31.679Z,28.15
2022-08-17T16:35:03.251Z,28.16
2022-08-17T16:37:31.061Z,28.13
2022-08-17T16:40:02.556Z,28.05
2022-08-17T16:42:33.405Z,28.01
2022-08-17T16:45:09.828Z,28.02
2022-08-17T16:47:38.284Z,28.06
2022-08-17T16:50:07.824Z,28.08
2022-08-17T16:52:36.695Z,27.99
2022-08-17T16:55:06.879Z,27.92
2022-08-17T16:57:37.436Z,27.82
2022-08-17T17:00:16.996Z,27.66
2022-08-17T17:02:47.889Z,27.59
2022-08-17T17:05:39.932Z,27.55
2022-08-17T17:08:15.455Z,27.47
2022-08-17T17:10:47.662Z,27.40
2022-08-17T17:13:26.087Z,27.35
2022-08-17T17:16:18.350Z,27.30
2022-08-17T17:19:08.789Z,27.20
2022-08-17T17:21:52.385Z,27.15
2022-08-17T17:24:39.054Z,27.11
2022-08-17T17:27:35.330Z,27.07
2022-08-17T17:30:40.015Z,26.99
2022-08-17T17:33:18.477Z,26.90
2022-08-17T17:36:06.966Z,26.88
2022-08-17T17:38:43.039Z,26.85
2022-08-17T17:41:26.116Z,26.80
2022-08-17T17:44:22.073Z,26.73
2022-08-17T17:46:55.272Z,26.69
2022-08-17T17:49:24.909Z,26.69
2022-08-17T17:52:10.228Z,26.69
2022-08-17T17:54:58.495Z,26.70
2022-08-17T17:57:45.098Z,26.63
2022-08-17T18:00:26.154Z,26.57
2022-08-17T18:03:00.984Z,26.50
2022-08-17T18:06:01.230Z,26.48
2022-08-17T18:08:52.959Z,26.41
2022-08-17T18:11:27.110Z,26.31
2022-08-17T18:14:21.854Z,26.28
2022-08-17T18:16:55.847Z,26.27
2022-08-17T18:19:25.630Z,26.27
2022-08-17T18:22:02.888Z,26.21
2022-08-17T18:24:34.604Z,26.17
2022-08-17T18:27:08.670Z,26.12
2022-08-17T18:29:47.810Z,26.08
2022-08-17T18:32:37.511Z,26.02
2022-08-17T18:35:07.923Z,25.96
2022-08-17T18:37:42.717Z,25.89
2022-08-17T18:40:16.449Z,25.83
2022-08-17T18:42:57.864Z,25.83
2022-08-17T18:45:49.436Z,25.85
2022-08-17T18:49:15.795Z,25.85
2022-08-17T18:51:43.585Z,25.84
2022-08-17T18:54:23.993Z,25.84
2022-08-17T18:56:56.059Z,25.88
2022-08-17T18:59:42.087Z,25.86
2022-08-17T19:02:43.383Z,25.77
2022-08-17T19:05:41.012Z,25.71
2022-08-17T19:08:17.901Z,25.72
2022-08-17T19:10:49.035Z,25.69
2022-08-17T19:13:27.842Z,25.67
2022-08-17T19:16:14.815Z,25.68
2022-08-17T19:18:58.025Z,25.69
2022-08-17T19:21:30.557Z,25.68
2022-08-17T19:24:01.729Z,25.67
2022-08-17T19:26:50.987Z,25.68
2022-08-17T19:29:41.220Z,25.69
2022-08-17T19:32:10.979Z,25.67
2022-08-17T19:34:44.594Z,25.58
2022-08-17T19:37:44.947Z,25.54
2022-08-17T19:40:51.104Z,25.51
2022-08-17T19:43:23.122Z,25.44
2022-08-17T19:46:06.333Z,25.35
2022-08-17T19:48:54.210Z,25.29
2022-08-17T19:51:36.065Z,25.26
2022-08-17T19:54:26.502Z,25.27
2022-08-17T19:57:04.771Z,25.18
2022-08-17T19:59:50.812Z,25.23
2022-08-17T20:02:40.205Z,25.29
2022-08-17T20:05:26.514Z,25.29
2022-08-17T20:08:11.493Z,25.28
2022-08-17T20:10:54.447Z,25.23
2022-08-17T20:13:34.012Z,25.21
2022-08-17T20:16:03.792Z,25.22
2022-08-17T20:19:01.757Z,25.22
2022-08-17T20:21:37.275Z,25.16
2022-08-17T20:24:21.006Z,25.12
2022-08-17T20:26:59.947Z,25.15
2022-08-17T20:29:40.073Z,25.14
2022-08-17T20:32:18.752Z,25.08
2022-08-17T20:34:47.994Z,25.00
2022-08-17T20:37:15.777Z,24.93
2022-08-17T20:39:43.573Z,24.92
2022-08-17T20:42:30.687Z,24.94
2022-08-17T20:45:05.907Z,24.93
2022-08-17T20:48:07.370Z,24.86
2022-08-17T20:51:12.255Z,24.80
2022-08-17T20:53:49.339Z,24.86
2022-08-17T20:56:45.093Z,24.92
2022-08-17T20:59:30.443Z,24.92
2022-08-17T21:02:18.048Z,24.93
2022-08-17T21:04:50.091Z,24.97
2022-08-17T21:07:43.224Z,24.96
2022-08-17T21:10:25.654Z,24.87
2022-08-17T21:13:13.774Z,24.82
2022-08-17T21:15:51.809Z,24.85
2022-08-17T21:18:28.550Z,24.91
2022-08-17T21:21:19.989Z,24.93
2022-08-17T21:24:15.451Z,24.86
2022-08-17T21:26:56.192Z,24.84
2022-08-17T21:29:32.505Z,24.88
2022-08-17T21:32:01.602Z,24.97
2022-08-17T21:34:44.966Z,25.01
2022-08-17T21:37:18.678Z,25.01
2022-08-17T21:40:02.655Z,25.01
2022-08-17T21:42:34.516Z,25.03
2022-08-17T21:45:22.645Z,24.98
2022-08-17T21:48:06.949Z,24.92
2022-08-17T21:50:35.668Z,24.94
2022-08-17T21:53:04.904Z,24.97
2022-08-17T21:55:34.585Z,24.90
2022-08-17T21:58:19.384Z,24.83
2022-08-17T22:00:47.602Z,24.74
2022-08-17T22:03:26.074Z,24.67
2022-08-17T22:05:53.843Z,24.67
2022-08-17T22:08:25.772Z,24.63
2022-08-17T22:11:02.023Z,24.56
2022-08-17T22:13:30.239Z,24.48
2022-08-17T22:16:04.132Z,24.45
2022-08-17T22:18:45.207Z,24.46
2022-08-17T22:21:12.978Z,24.41
2022-08-17T22:24:01.644Z,24.34
2022-08-17T22:27:00.587Z,24.28
2022-08-17T22:29:57.821Z,24.26
2022-08-17T22:32:41.616Z,24.22
2022-08-17T22:35:28.081Z,24.17
2022-08-17T22:37:57.414Z,24.11
2022-08-17T22:40:33.721Z,24.05
2022-08-17T22:43:03.788Z,23.95
2022-08-17T22:45:33.605Z,23.88
2022-08-17T22:48:02.185Z,23.90
2022-08-17T22:50:33.145Z,23.90
2022-08-17T22:53:22.212Z,23.87
2022-08-17T22:56:11.993Z,23.91
2022-08-17T22:59:08.334Z,23.95
2022-08-17T23:01:36.391Z,23.99
2022-08-17T23:04:05.987Z,23.99
2022-08-17T23:06:35.934Z,23.94
2022-08-17T23:09:06.122Z,23.89
2022-08-17T23:11:49.089Z,23.85
2022-08-17T23:14:21.562Z,23.83
2022-08-17T23:16:50.982Z,23.78
2022-08-17T23:19:21.257Z,23.73
2022-08-17T23:21:52.837Z,23.69
2022-08-17T23:24:27.031Z,23.69
2022-08-17T23:26:57.471Z,23.64
2022-08-17T23:29:29.396Z,23.66
2022-08-17T23:31:59.881Z,23.64
2022-08-17T23:34:28.725Z,23.58
2022-08-17T23:36:56.598Z,23.53
2022-08-17T23:39:27.749Z,23.48
2022-08-17T23:42:00.926Z,23.47
2022-08-17T23:44:28.907Z,23.45
2022-08-17T23:46:56.875Z,23.43
2022-08-17T23:49:25.341Z,23.43
2022-08-17T23:51:56.073Z,23.41
2022-08-17T23:54:43.842Z,23.38
2022-08-17T23:57:16.026Z,23.32
2022-08-17T23:59:44.387Z,23.27
